Time;durP1;ratioP1;P1;durP2;ratioP2;P2;SDS_P1;SDS_P2;PMS_P1;PMS_P2;Temp;Humidity;BMP_temperature;BMP_pressure;BME280_temperature;BME280_humidity;BME280_pressure;Samples;Min_cycle;Max_cycle;Signal;HPM_P1;HPM_P2
2022/03/06 00:00:33;;;;;;;;;24.25;21.75;;;;;3.24;78.15;102418.06;5049659;28;11575;-68
2022/03/06 00:03:01;;;;;;;;;17.50;16.75;;;;;3.29;78.29;102427.50;5059843;28;11562;-68
2022/03/06 00:05:28;;;;;;;;;20.00;15.50;;;;;3.24;77.82;102421.59;5050244;28;11694;-70
2022/03/06 00:07:56;;;;;;;;;20.50;19.50;;;;;3.25;77.52;102422.44;5052499;28;11659;-69
2022/03/06 00:10:23;;;;;;;;;21.50;18.25;;;;;3.16;77.92;102428.38;5034380;28;11553;-68
2022/03/06 00:12:49;;;;;;;;;21.00;21.00;;;;;3.17;77.36;102430.97;5035747;28;11656;-69
2022/03/06 00:15:16;;;;;;;;;19.75;15.50;;;;;3.17;77.23;102440.81;5043194;28;11581;-68
2022/03/06 00:17:43;;;;;;;;;20.00;20.00;;;;;3.28;76.98;102427.59;5046733;28;11652;-69
2022/03/06 00:20:10;;;;;;;;;23.50;21.75;;;;;3.19;76.61;102429.03;5070842;28;11622;-69
2022/03/06 00:22:37;;;;;;;;;20.25;19.50;;;;;3.26;76.42;102435.72;5052794;28;11703;-68
2022/03/06 00:25:05;;;;;;;;;25.75;23.00;;;;;3.28;76.33;102440.97;5047527;28;11667;-70
2022/03/06 00:27:31;;;;;;;;;22.00;18.00;;;;;3.30;76.41;102441.72;5058613;28;12271;-69
2022/03/06 00:29:58;;;;;;;;;22.75;22.00;;;;;3.31;76.28;102446.97;5045732;28;11572;-68
2022/03/06 00:32:25;;;;;;;;;18.50;18.25;;;;;3.33;75.79;102442.38;5051724;28;12291;-68
2022/03/06 00:34:51;;;;;;;;;23.00;20.75;;;;;3.28;75.69;102447.19;5032266;28;11681;-68
2022/03/06 00:37:18;;;;;;;;;30.75;26.50;;;;;3.30;75.89;102444.41;5032399;28;11565;-69
2022/03/06 00:39:44;;;;;;;;;23.75;21.50;;;;;3.34;75.90;102451.25;5045179;28;11673;-68
2022/03/06 00:42:11;;;;;;;;;20.25;18.75;;;;;3.31;75.66;102448.78;5052377;28;11653;-68
2022/03/06 00:44:38;;;;;;;;;32.00;28.25;;;;;3.29;75.84;102440.88;5055978;28;11539;-68
2022/03/06 00:47:05;;;;;;;;;22.00;21.50;;;;;3.29;76.41;102442.69;5065212;28;11563;-68
2022/03/06 00:49:32;;;;;;;;;29.75;25.75;;;;;3.31;76.18;102452.31;5060572;28;11625;-69
2022/03/06 00:51:59;;;;;;;;;32.00;26.00;;;;;3.35;75.77;102458.31;5063980;28;11646;-68
2022/03/06 00:54:27;;;;;;;;;24.75;21.00;;;;;3.27;75.59;102449.97;5059511;28;11574;-69
2022/03/06 00:56:53;;;;;;;;;24.25;19.50;;;;;3.33;76.29;102450.41;5050729;28;12263;-68
2022/03/06 00:59:21;;;;;;;;;26.00;24.75;;;;;3.33;75.76;102457.56;5048203;28;12293;-68
2022/03/06 01:01:47;;;;;;;;;28.25;24.50;;;;;3.27;75.55;102458.84;5035738;28;11693;-67
2022/03/06 01:04:14;;;;;;;;;26.00;19.50;;;;;3.29;75.70;102461.41;5031686;28;11692;-70
2022/03/06 01:06:41;;;;;;;;;28.50;22.25;;;;;3.27;75.52;102466.88;5031867;28;11559;-68
2022/03/06 01:09:08;;;;;;;;;29.50;25.00;;;;;3.21;76.00;102467.25;5039099;28;11676;-68
2022/03/06 01:11:35;;;;;;;;;21.50;19.50;;;;;3.17;75.08;102478.28;5048313;28;12840;-68
2022/03/06 01:14:02;;;;;;;;;34.50;27.75;;;;;3.18;74.85;102480.84;5054046;28;11714;-68
2022/03/06 01:16:28;;;;;;;;;27.50;23.50;;;;;3.22;75.20;102473.47;5052491;28;12307;-70
2022/03/06 01:18:55;;;;;;;;;28.00;22.75;;;;;3.36;75.02;102478.78;5044606;28;11567;-68
2022/03/06 01:21:21;;;;;;;;;31.00;27.75;;;;;3.25;75.20;102475.97;5030848;28;11677;-68
2022/03/06 01:23:48;;;;;;;;;29.75;22.50;;;;;3.17;74.75;102473.78;5050978;28;11549;-68
2022/03/06 01:26:16;;;;;;;;;24.25;24.25;;;;;3.21;75.70;102475.28;5054163;28;11549;-68
2022/03/06 01:28:43;;;;;;;;;27.50;27.50;;;;;3.28;76.15;102479.31;5057199;28;11645;-69
2022/03/06 01:31:10;;;;;;;;;20.00;18.25;;;;;3.30;76.23;102474.69;5052111;28;11552;-68
2022/03/06 01:33:37;;;;;;;;;27.75;27.75;;;;;3.28;75.25;102486.47;5058194;28;11665;-69
2022/03/06 01:36:04;;;;;;;;;30.25;27.25;;;;;3.26;75.89;102491.06;5050789;28;11628;-68
2022/03/06 01:38:30;;;;;;;;;32.50;27.75;;;;;3.23;76.78;102492.13;5053815;28;11721;-67
2022/03/06 01:40:57;;;;;;;;;34.00;27.50;;;;;3.25;76.39;102494.72;5050374;28;11673;-70
2022/03/06 01:43:23;;;;;;;;;32.25;27.75;;;;;3.26;76.34;102486.56;5049368;28;11577;-68
2022/03/06 01:45:51;;;;;;;;;33.75;26.50;;;;;3.27;76.46;102504.34;5050321;28;11577;-68
2022/03/06 01:48:17;;;;;;;;;25.25;23.25;;;;;3.27;76.37;102501.66;5049150;28;11559;-69
2022/03/06 01:50:44;;;;;;;;;31.75;24.50;;;;;3.26;77.15;102497.28;5045591;28;11706;-68
2022/03/06 01:53:14;;;;;;;;;29.75;27.75;;;;;3.19;77.38;102495.94;5030046;28;11625;-68
2022/03/06 01:55:42;;;;;;;;;33.50;30.50;;;;;3.26;77.20;102491.94;5056543;28;11623;-68
2022/03/06 01:58:11;;;;;;;;;31.75;28.50;;;;;3.23;77.36;102493.94;5050714;28;11680;-68
2022/03/06 02:00:48;;;;;;;;;38.00;33.25;;;;;3.13;76.94;102496.34;5065603;28;11611;-70
2022/03/06 02:03:16;;;;;;;;;28.50;25.50;;;;;3.14;78.04;102495.38;5068679;28;11536;-69
2022/03/06 02:05:44;;;;;;;;;36.50;29.75;;;;;3.16;78.45;102492.63;5050723;28;11651;-68
2022/03/06 02:08:11;;;;;;;;;36.50;31.75;;;;;3.15;78.15;102499.78;5054614;28;11556;-69
2022/03/06 02:10:37;;;;;;;;;32.50;30.75;;;;;3.00;78.54;102498.97;5039817;28;11687;-69
2022/03/06 02:13:05;;;;;;;;;32.75;30.50;;;;;3.01;78.66;102499.84;5054290;28;11679;-69
2022/03/06 02:15:32;;;;;;;;;48.50;35.00;;;;;2.92;78.24;102503.94;5056880;28;11561;-69
2022/03/06 02:17:59;;;;;;;;;34.25;29.75;;;;;2.96;78.51;102507.28;5069847;28;11601;-69
2022/03/06 02:20:27;;;;;;;;;32.25;27.50;;;;;2.92;78.94;102503.09;5050746;28;11662;-68
2022/03/06 02:22:55;;;;;;;;;37.50;32.25;;;;;2.94;79.29;102499.34;5049970;28;11687;-68
2022/03/06 02:25:28;;;;;;;;;33.00;29.75;;;;;2.90;79.05;102499.66;5053703;28;11591;-68
2022/03/06 02:27:58;;;;;;;;;33.50;26.75;;;;;2.96;78.96;102499.25;5047975;28;11746;-69
2022/03/06 02:30:27;;;;;;;;;33.25;29.25;;;;;2.96;78.74;102493.91;5066887;28;11549;-68
2022/03/06 02:32:54;;;;;;;;;32.50;24.00;;;;;2.92;78.94;102500.41;5055723;28;11697;-68
2022/03/06 02:35:21;;;;;;;;;35.25;30.25;;;;;2.91;78.99;102499.56;5048962;28;11688;-71
2022/03/06 02:37:48;;;;;;;;;19.50;16.25;;;;;2.86;78.67;102495.47;5060238;28;11581;-69
2022/03/06 02:40:16;;;;;;;;;35.75;32.25;;;;;2.92;78.47;102495.06;5056229;28;11743;-68
2022/03/06 02:42:45;;;;;;;;;40.25;31.25;;;;;2.83;78.10;102495.66;5051332;28;11663;-68
2022/03/06 02:45:15;;;;;;;;;23.75;22.75;;;;;2.77;77.88;102495.09;5049334;28;12302;-69
2022/03/06 02:47:42;;;;;;;;;36.50;29.50;;;;;2.78;77.40;102493.28;5061496;28;11559;-69
2022/03/06 02:50:12;;;;;;;;;43.00;38.00;;;;;2.77;77.04;102496.91;5052341;28;11753;-69
2022/03/06 02:52:39;;;;;;;;;41.50;35.50;;;;;2.75;76.68;102494.34;5049461;28;11549;-69
2022/03/06 02:55:07;;;;;;;;;35.00;30.00;;;;;2.77;76.78;102495.09;5048168;28;11577;-70
2022/03/06 02:57:33;;;;;;;;;35.50;31.50;;;;;2.78;76.34;102496.81;5049540;28;11706;-71
2022/03/06 03:00:00;;;;;;;;;35.25;31.00;;;;;2.76;75.92;102488.03;5055571;28;11702;-69
2022/03/06 03:02:26;;;;;;;;;33.75;26.50;;;;;2.76;76.08;102487.19;5045593;28;11636;-69
2022/03/06 03:04:53;;;;;;;;;41.25;34.25;;;;;2.76;76.63;102482.69;5076381;28;11555;-69
2022/03/06 03:07:19;;;;;;;;;38.75;31.75;;;;;2.68;77.02;102484.97;5069469;28;11682;-69
2022/03/06 03:09:46;;;;;;;;;31.75;28.75;;;;;2.78;77.33;102487.94;5054330;28;11553;-69
2022/03/06 03:12:12;;;;;;;;;43.75;41.00;;;;;2.68;77.45;102489.47;5046997;28;11581;-69
2022/03/06 03:14:39;;;;;;;;;31.50;30.00;;;;;2.65;77.83;102487.84;5048765;28;11576;-68
2022/03/06 03:17:06;;;;;;;;;31.00;23.50;;;;;2.61;77.12;102494.34;5061236;28;11654;-70
2022/03/06 03:19:33;;;;;;;;;35.00;31.50;;;;;2.55;77.21;102499.22;5063552;28;12285;-68
2022/03/06 03:21:59;;;;;;;;;33.50;31.25;;;;;2.52;77.89;102499.44;5060515;28;11592;-68
2022/03/06 03:24:26;;;;;;;;;37.75;35.00;;;;;2.52;78.32;102497.63;5057871;28;11576;-68
2022/03/06 03:26:53;;;;;;;;;30.75;26.25;;;;;2.53;78.32;102496.66;5064816;28;11560;-68
2022/03/06 03:29:20;;;;;;;;;30.25;28.50;;;;;2.53;78.35;102498.47;5039702;28;11594;-69
2022/03/06 03:31:47;;;;;;;;;35.25;30.75;;;;;2.51;77.50;102495.91;5029583;28;11722;-69
2022/03/06 03:34:14;;;;;;;;;35.50;24.50;;;;;2.55;76.93;102502.75;5050911;28;11570;-68
2022/03/06 03:36:40;;;;;;;;;27.00;26.50;;;;;2.56;76.76;102499.13;5061183;28;11544;-69
2022/03/06 03:39:07;;;;;;;;;31.50;25.00;;;;;2.60;77.22;102506.00;5062979;28;11692;-69
2022/03/06 03:41:34;;;;;;;;;37.50;33.00;;;;;2.62;77.72;102497.88;5052563;28;11627;-69
2022/03/06 03:44:02;;;;;;;;;32.00;27.75;;;;;2.68;77.83;102500.16;5052258;28;11560;-68
2022/03/06 03:46:28;;;;;;;;;33.75;27.25;;;;;2.68;77.88;102498.34;5060532;28;12372;-69
2022/03/06 03:48:55;;;;;;;;;25.50;24.50;;;;;2.71;77.84;102505.31;5051584;28;11535;-70
2022/03/06 03:51:21;;;;;;;;;22.75;21.00;;;;;2.68;77.88;102498.34;5065779;28;11660;-68
2022/03/06 03:53:48;;;;;;;;;30.00;23.50;;;;;2.70;77.85;102499.09;5060441;28;11812;-69
2022/03/06 03:56:14;;;;;;;;;34.25;30.00;;;;;2.65;77.33;102498.53;5072769;28;11666;-69
2022/03/06 03:58:41;;;;;;;;;31.00;26.75;;;;;2.60;77.14;102500.66;5066212;28;11661;-69
2022/03/06 04:01:07;;;;;;;;;34.50;26.25;;;;;2.62;76.98;102496.06;5052819;28;11552;-70
2022/03/06 04:03:34;;;;;;;;;33.25;29.25;;;;;2.61;76.73;102501.50;5054377;28;12256;-69
2022/03/06 04:06:00;;;;;;;;;38.50;30.00;;;;;2.65;76.23;102505.72;5051304;28;12355;-68
2022/03/06 04:08:27;;;;;;;;;32.75;29.00;;;;;2.65;75.63;102505.72;5051666;28;11682;-68
2022/03/06 04:10:56;;;;;;;;;22.00;20.25;;;;;2.65;76.08;102501.22;5052294;28;11541;-71
2022/03/06 04:13:23;;;;;;;;;29.25;23.50;;;;;2.63;76.80;102497.78;5050512;28;11655;-69
2022/03/06 04:15:50;;;;;;;;;24.75;24.75;;;;;2.69;75.17;102502.72;5054479;28;12253;-69
2022/03/06 04:18:18;;;;;;;;;33.50;30.75;;;;;2.59;75.75;102506.97;5086320;22;11632;31
2022/03/06 04:20:45;;;;;;;;;32.25;23.00;;;;;2.63;75.12;102503.13;5030792;28;11670;-70
2022/03/06 04:23:11;;;;;;;;;33.50;29.00;;;;;2.67;74.87;102501.13;5056498;28;11593;-69
2022/03/06 04:25:38;;;;;;;;;21.75;21.75;;;;;2.69;75.22;102510.75;5031690;28;11500;-69
2022/03/06 04:28:04;;;;;;;;;23.75;22.00;;;;;2.66;76.04;102504.75;5021957;28;11592;-70
2022/03/06 04:30:30;;;;;;;;;32.00;25.25;;;;;2.65;76.06;102511.91;5060297;28;11490;-69
2022/03/06 04:33:02;;;;;;;;;23.00;23.00;;;;;2.66;75.96;102515.44;5032013;28;11572;-68
2022/03/06 04:35:29;;;;;;;;;30.25;23.75;;;;;2.67;75.53;102515.34;5069981;28;11517;-69
2022/03/06 04:37:55;;;;;;;;;23.50;20.25;;;;;2.70;74.71;102517.81;5071871;28;11605;-70
2022/03/06 04:40:22;;;;;;;;;23.75;21.25;;;;;2.67;74.68;102519.84;5053682;28;11629;-70
2022/03/06 04:42:48;;;;;;;;;21.00;20.00;;;;;2.73;74.05;102533.69;5050712;28;11539;-70
2022/03/06 04:45:15;;;;;;;;;21.00;19.50;;;;;2.73;73.10;102531.03;5060302;28;11516;-70
2022/03/06 04:47:41;;;;;;;;;18.50;17.25;;;;;2.72;72.80;102534.63;5071776;28;11574;-68
2022/03/06 04:50:08;;;;;;;;;27.00;23.00;;;;;2.71;72.43;102532.06;5054564;28;11591;-69
2022/03/06 04:52:35;;;;;;;;;27.50;23.25;;;;;2.71;71.83;102534.72;5051506;28;11529;-69
2022/03/06 04:55:01;;;;;;;;;26.00;21.75;;;;;2.71;71.90;102542.75;5048660;28;11541;-70
2022/03/06 04:57:28;;;;;;;;;20.50;18.00;;;;;2.70;71.68;102544.56;5061963;28;11648;-70
2022/03/06 04:59:54;;;;;;;;;20.00;16.00;;;;;2.73;71.21;102541.72;5050689;28;11637;-69
2022/03/06 05:02:20;;;;;;;;;22.50;21.00;;;;;2.73;71.30;102540.88;5051162;28;11489;-69
2022/03/06 05:04:47;;;;;;;;;20.00;15.00;;;;;2.70;70.13;102549.91;5064314;28;11516;-70
2022/03/06 05:07:13;;;;;;;;;18.50;16.00;;;;;2.73;71.22;102554.25;5071429;28;11511;-68
2022/03/06 05:09:40;;;;;;;;;18.00;16.00;;;;;2.72;71.05;102541.78;5047176;28;11657;-69
2022/03/06 05:12:08;;;;;;;;;18.75;17.00;;;;;2.74;70.49;102559.47;5056278;28;11513;-69
2022/03/06 05:14:34;;;;;;;;;21.50;15.75;;;;;2.73;70.24;102552.41;5059806;28;11571;-69
2022/03/06 05:17:01;;;;;;;;;22.25;19.75;;;;;2.68;70.54;102550.97;5071264;28;11497;-68
2022/03/06 05:19:27;;;;;;;;;25.25;22.75;;;;;2.67;70.04;102547.44;5060209;28;11680;-69
2022/03/06 05:21:54;;;;;;;;;24.25;23.00;;;;;2.72;70.23;102561.38;5050888;28;11630;-69
2022/03/06 05:24:20;;;;;;;;;16.00;16.00;;;;;2.76;70.31;102549.53;5050103;28;11489;-69
2022/03/06 05:26:46;;;;;;;;;19.00;19.00;;;;;2.72;70.72;102557.84;5016585;28;11629;-68
2022/03/06 05:29:13;;;;;;;;;25.00;22.25;;;;;2.70;71.20;102565.94;5034591;28;11469;-68
2022/03/06 05:31:39;;;;;;;;;24.75;21.00;;;;;2.72;71.92;102568.53;5048993;28;11595;-68
2022/03/06 05:34:06;;;;;;;;;11.00;10.50;;;;;2.72;72.34;102569.38;5045990;28;11595;-70
2022/03/06 05:36:32;;;;;;;;;18.00;14.25;;;;;2.73;72.93;102568.47;5070766;28;11605;-69
2022/03/06 05:38:59;;;;;;;;;11.75;11.75;;;;;2.72;71.98;102565.84;5070192;28;11523;-69
2022/03/06 05:41:25;;;;;;;;;17.00;14.00;;;;;2.72;70.99;102574.75;5070494;28;12299;-69
2022/03/06 05:43:52;;;;;;;;;10.75;10.75;;;;;2.72;70.54;102569.38;5052958;28;11577;-70
2022/03/06 05:46:18;;;;;;;;;19.75;19.00;;;;;2.68;69.94;102567.88;5032935;28;11600;-68
2022/03/06 05:48:45;;;;;;;;;18.50;17.00;;;;;2.68;69.27;102573.22;5054937;28;11507;-68
2022/03/06 05:51:11;;;;;;;;;18.50;18.00;;;;;2.72;69.02;102579.22;5055803;28;11658;-70
2022/03/06 05:53:38;;;;;;;;;18.00;15.75;;;;;2.74;68.47;102583.56;5056161;28;11549;-68
2022/03/06 05:56:04;;;;;;;;;15.00;15.00;;;;;2.71;68.56;102605.09;5032058;28;11450;-68
2022/03/06 05:58:30;;;;;;;;;21.00;17.25;;;;;2.64;67.55;102592.22;5050837;28;11602;-70
2022/03/06 06:00:57;;;;;;;;;17.00;14.50;;;;;2.66;67.76;102595.66;5069500;28;12343;-70
2022/03/06 06:03:25;;;;;;;;;13.50;9.75;;;;;2.66;68.41;102599.19;5050937;28;11519;-70
2022/03/06 06:05:52;;;;;;;;;19.00;14.50;;;;;2.63;67.46;102609.22;5070318;28;11496;-68
2022/03/06 06:08:22;;;;;;;;;16.75;13.75;;;;;2.62;67.82;102608.34;5068549;28;11615;-69
2022/03/06 06:10:48;;;;;;;;;12.75;12.75;;;;;2.72;68.03;102614.84;5048908;28;11549;-68
2022/03/06 06:13:15;;;;;;;;;16.50;13.75;;;;;2.67;68.35;102614.28;5040546;28;11567;-69
2022/03/06 06:15:45;;;;;;;;;10.50;10.00;;;;;2.62;67.74;102616.38;5044132;28;11563;-69
2022/03/06 06:18:11;;;;;;;;;15.25;12.00;;;;;2.67;67.13;102627.66;5070079;28;11466;-69
2022/03/06 06:20:39;;;;;;;;;11.00;10.00;;;;;2.59;67.61;102629.94;5049475;28;11472;-69
2022/03/06 06:23:06;;;;;;;;;13.00;12.00;;;;;2.65;68.26;102626.88;5044221;28;11625;-68
2022/03/06 06:25:32;;;;;;;;;13.50;10.50;;;;;2.66;68.74;102638.44;5057959;28;11585;-68
2022/03/06 06:27:59;;;;;;;;;11.00;11.00;;;;;2.68;68.87;102639.19;5028952;28;11654;-69
2022/03/06 06:30:25;;;;;;;;;10.00;9.50;;;;;2.62;69.20;102629.75;5060918;28;11486;-68
2022/03/06 06:32:52;;;;;;;;;12.25;12.00;;;;;2.61;69.68;102646.75;5054525;28;11516;-70
2022/03/06 06:35:20;;;;;;;;;12.75;11.00;;;;;2.65;70.09;102648.28;5065514;28;12263;-69
2022/03/06 06:37:48;;;;;;;;;15.00;14.50;;;;;2.68;71.06;102633.84;5062119;28;11557;-70
2022/03/06 06:40:15;;;;;;;;;12.75;11.50;;;;;2.65;69.67;102642.94;5060304;28;11488;-69
2022/03/06 06:42:41;;;;;;;;;15.75;15.00;;;;;2.67;69.35;102646.38;5050071;28;11489;-69
2022/03/06 06:45:08;;;;;;;;;19.00;15.50;;;;;2.65;70.42;102658.13;5069344;28;12228;-69
2022/03/06 06:47:34;;;;;;;;;18.25;17.50;;;;;2.82;70.50;102655.28;5061972;28;11629;-69
2022/03/06 06:50:01;;;;;;;;;16.00;14.00;;;;;2.82;70.52;102667.78;5034096;28;11534;-69
2022/03/06 06:52:27;;;;;;;;;17.75;13.25;;;;;2.73;70.45;102658.53;5048663;28;11634;-69
2022/03/06 06:54:54;;;;;;;;;16.50;13.50;;;;;2.71;69.88;102655.91;5052086;28;11464;-69
2022/03/06 06:57:20;;;;;;;;;17.00;17.00;;;;;2.66;70.77;102663.38;5050135;28;11519;-68
2022/03/06 06:59:47;;;;;;;;;19.00;19.00;;;;;2.72;70.86;102667.47;5062709;28;11642;-69
2022/03/06 07:02:13;;;;;;;;;14.25;12.50;;;;;2.70;71.72;102670.25;5028690;28;11635;-68
2022/03/06 07:04:40;;;;;;;;;20.25;18.00;;;;;2.66;72.06;102679.41;5047759;28;11511;-68
2022/03/06 07:07:06;;;;;;;;;19.50;16.50;;;;;2.64;71.68;102684.00;5065168;28;11527;-68
2022/03/06 07:09:33;;;;;;;;;15.00;14.00;;;;;2.64;71.91;102675.09;5063532;28;11506;-69
2022/03/06 07:11:59;;;;;;;;;13.50;13.50;;;;;2.63;71.81;102690.28;5053940;28;11634;-70
2022/03/06 07:14:26;;;;;;;;;21.50;12.25;;;;;2.61;72.50;102689.53;5051654;28;11622;-68
2022/03/06 07:16:52;;;;;;;;;12.00;10.75;;;;;2.74;73.08;102690.53;5053050;28;11486;-69
2022/03/06 07:19:18;;;;;;;;;14.00;12.25;;;;;2.59;73.29;102688.75;5062052;28;11508;-69
2022/03/06 07:21:45;;;;;;;;;18.00;14.00;;;;;2.57;72.96;102696.00;5073060;28;11449;-69
2022/03/06 07:24:11;;;;;;;;;14.75;13.50;;;;;2.52;72.68;102708.81;5063638;28;11501;-70
2022/03/06 07:26:38;;;;;;;;;14.50;13.00;;;;;2.49;72.21;102714.34;5054356;28;11493;-69
2022/03/06 07:29:04;;;;;;;;;12.00;11.25;;;;;2.50;72.27;102712.53;5065461;28;11531;-68
2022/03/06 07:31:31;;;;;;;;;9.00;8.50;;;;;2.62;71.83;102719.78;5052749;28;11525;-68
2022/03/06 07:33:57;;;;;;;;;10.75;10.75;;;;;2.66;70.90;102721.31;5035503;28;11586;-69
2022/03/06 07:36:24;;;;;;;;;13.00;13.00;;;;;2.68;70.59;102722.09;5053107;28;12198;-68
2022/03/06 07:38:51;;;;;;;;;11.00;11.00;;;;;2.61;71.19;102718.94;5054714;28;11507;-68
2022/03/06 07:41:17;;;;;;;;;13.00;10.50;;;;;2.67;70.75;102726.59;5054984;28;12382;-68
2022/03/06 07:43:44;;;;;;;;;12.75;11.75;;;;;2.69;70.95;102737.19;5034307;28;11520;-69
2022/03/06 07:46:11;;;;;;;;;11.50;11.50;;;;;2.83;70.60;102725.69;5052667;28;11457;-68
2022/03/06 07:48:37;;;;;;;;;15.25;13.00;;;;;2.83;70.48;102731.03;5069934;28;11457;-69
2022/03/06 07:51:04;;;;;;;;;11.25;9.00;;;;;2.87;69.88;102738.78;5043054;28;11598;-72
2022/03/06 07:53:31;;;;;;;;;15.00;13.75;;;;;2.89;70.05;102741.34;5055389;28;11476;-69
2022/03/06 07:55:57;;;;;;;;;11.00;11.00;;;;;2.85;68.99;102737.13;5052596;28;11548;-69
2022/03/06 07:58:24;;;;;;;;;14.50;7.00;;;;;2.90;69.49;102749.28;5054134;28;11622;-71
2022/03/06 08:00:50;;;;;;;;;8.50;8.50;;;;;3.00;68.97;102745.13;5072553;28;11536;-70
2022/03/06 08:03:17;;;;;;;;;15.00;11.75;;;;;3.04;67.94;102738.63;5054359;28;11426;-69
2022/03/06 08:05:45;;;;;;;;;11.50;8.50;;;;;3.03;67.15;102750.28;5029006;28;11434;-69
2022/03/06 08:08:11;;;;;;;;;13.00;10.25;;;;;3.09;67.20;102763.28;5044009;28;11601;-69
2022/03/06 08:10:38;;;;;;;;;14.00;12.25;;;;;3.12;65.93;102758.69;5069342;28;11476;-70
2022/03/06 08:13:04;;;;;;;;;12.50;9.00;;;;;3.24;64.82;102748.09;5056716;28;11553;-70
2022/03/06 08:15:31;;;;;;;;;11.25;10.25;;;;;3.17;63.88;102743.19;5079173;28;11501;-70
2022/03/06 08:17:57;;;;;;;;;12.75;11.00;;;;;3.39;63.89;102755.16;5052362;28;11423;-68
2022/03/06 08:20:24;;;;;;;;;11.00;10.25;;;;;3.48;62.98;102748.41;5063814;28;11568;-68
2022/03/06 08:22:50;;;;;;;;;16.00;12.25;;;;;3.78;61.66;102763.47;5051338;28;11424;-67
2022/03/06 08:25:20;;;;;;;;;13.00;12.75;;;;;4.05;59.97;102760.84;5051353;28;11537;-69
2022/03/06 08:27:47;;;;;;;;;13.50;13.50;;;;;3.89;60.48;102764.50;5052221;28;11486;-69
2022/03/06 08:30:14;;;;;;;;;13.50;12.25;;;;;4.25;60.58;102769.31;5052564;28;11513;-69
2022/03/06 08:32:41;;;;;;;;;9.00;8.25;;;;;4.45;59.65;102769.78;5033934;28;11540;-68
2022/03/06 08:35:08;;;;;;;;;12.50;12.50;;;;;4.15;59.75;102768.19;5052677;28;11665;-69
2022/03/06 08:37:35;;;;;;;;;13.00;13.00;;;;;4.64;58.73;102770.28;5034902;28;11459;-68
2022/03/06 08:40:03;;;;;;;;;14.75;11.50;;;;;4.74;58.28;102773.25;5056397;28;11521;-69
2022/03/06 08:42:30;;;;;;;;;12.00;11.25;;;;;5.00;58.28;102772.31;5036553;28;11455;-69
2022/03/06 08:44:56;;;;;;;;;13.25;11.00;;;;;5.13;57.24;102775.00;5071124;28;11438;-69
2022/03/06 08:47:23;;;;;;;;;13.25;11.50;;;;;5.06;57.07;102769.22;5068105;28;11435;-69
2022/03/06 08:49:50;;;;;;;;;17.00;12.75;;;;;5.31;55.47;102783.63;5057190;28;11471;-69
2022/03/06 08:52:16;;;;;;;;;14.50;13.00;;;;;5.37;55.06;102793.91;5051278;28;11464;-69
2022/03/06 08:54:42;;;;;;;;;7.75;7.75;;;;;5.45;54.82;102787.06;5034370;28;12168;-69
2022/03/06 08:57:09;;;;;;;;;10.00;10.00;;;;;5.73;54.08;102774.34;5047978;28;11534;-68
2022/03/06 08:59:35;;;;;;;;;14.25;13.00;;;;;5.91;54.17;102781.09;5030567;28;11559;-69
2022/03/06 09:02:02;;;;;;;;;10.00;10.00;;;;;5.82;54.06;102787.97;5057063;28;11478;-68
2022/03/06 09:04:31;;;;;;;;;8.50;8.50;;;;;5.64;53.05;102786.59;5062115;28;11586;-68
2022/03/06 09:06:58;;;;;;;;;10.25;6.25;;;;;5.38;53.98;102779.53;5038658;28;11397;-68
2022/03/06 09:09:25;;;;;;;;;9.75;6.75;;;;;5.70;53.96;102790.69;5054923;28;11448;-69
2022/03/06 09:11:51;;;;;;;;;11.50;10.75;;;;;5.71;52.62;102782.53;5050918;28;11341;-69
2022/03/06 09:14:18;;;;;;;;;6.75;6.75;;;;;5.33;54.26;102798.66;5052330;28;11414;-69
2022/03/06 09:16:44;;;;;;;;;11.25;9.00;;;;;5.22;54.42;102796.72;5048856;28;11503;-69
2022/03/06 09:19:10;;;;;;;;;12.25;9.00;;;;;5.50;54.70;102792.97;5047335;28;11429;-69
2022/03/06 09:21:38;;;;;;;;;9.75;9.25;;;;;5.46;52.94;102793.28;5070689;28;11517;-69
2022/03/06 09:24:08;;;;;;;;;11.50;11.50;;;;;6.16;51.99;102772.09;5062487;28;11611;-70
2022/03/06 09:26:35;;;;;;;;;10.00;10.00;;;;;6.12;51.41;102771.47;5058044;28;11429;-68
2022/03/06 09:29:02;;;;;;;;;10.50;10.00;;;;;6.33;51.47;102773.56;5045849;28;12120;-69
2022/03/06 09:31:28;;;;;;;;;11.50;11.00;;;;;6.03;51.38;102774.84;5054319;28;11436;-68
2022/03/06 09:33:55;;;;;;;;;8.50;8.00;;;;;5.93;51.38;102779.16;5056960;28;11477;-70
2022/03/06 09:36:42;;;;;;;;;5.50;5.50;;;;;6.32;51.57;102774.53;5055438;28;11465;-69
2022/03/06 09:39:08;;;;;;;;;12.00;9.00;;;;;6.34;50.09;102784.22;5046491;28;11395;-69
2022/03/06 09:41:40;;;;;;;;;14.00;11.25;;;;;6.40;49.58;102782.88;5070461;28;12128;-69
2022/03/06 09:44:09;;;;;;;;;8.50;8.50;;;;;6.46;49.41;102775.25;5059369;28;11376;-69
2022/03/06 09:46:36;;;;;;;;;11.25;9.50;;;;;6.35;48.60;102779.69;5049503;28;11510;-70
2022/03/06 09:49:05;;;;;;;;;9.25;9.25;;;;;6.73;48.56;102783.06;5038062;28;11583;-69
2022/03/06 09:51:40;;;;;;;;;10.25;10.00;;;;;6.34;48.76;102783.34;5050252;28;11191;-69
2022/03/06 09:54:09;;;;;;;;;10.25;8.50;;;;;6.42;49.54;102775.56;5020817;28;11454;-69
2022/03/06 09:56:36;;;;;;;;;13.75;12.25;;;;;6.02;49.04;102793.78;5050420;28;11393;-69
2022/03/06 09:59:03;;;;;;;;;7.75;7.75;;;;;6.07;49.88;102781.72;5049760;28;11387;-69
2022/03/06 10:01:29;;;;;;;;;7.50;7.50;;;;;6.11;49.42;102775.16;5063929;28;11415;-69
2022/03/06 10:03:56;;;;;;;;;8.50;8.50;;;;;6.24;49.37;102776.94;5054377;28;11495;-69
2022/03/06 10:06:23;;;;;;;;;9.75;7.00;;;;;6.27;48.65;102787.47;5050910;28;11447;-69
2022/03/06 10:09:07;;;;;;;;;11.00;8.75;;;;;6.21;48.49;102785.25;5035832;28;11517;-71
2022/03/06 10:11:34;;;;;;;;;5.00;4.00;;;;;6.31;49.19;102789.81;5030142;28;11626;-71
2022/03/06 10:14:00;;;;;;;;;7.00;7.00;;;;;6.40;49.32;102786.44;5037007;28;11265;-69
2022/03/06 10:16:29;;;;;;;;;13.00;10.25;;;;;6.79;48.23;102790.66;5050146;28;11475;-71
2022/03/06 10:18:56;;;;;;;;;9.00;6.50;;;;;6.61;48.26;102786.66;5050207;28;11467;-67
2022/03/06 10:21:24;;;;;;;;;11.25;10.50;;;;;5.94;49.94;102788.09;5049726;28;11423;-69
2022/03/06 10:23:54;;;;;;;;;13.00;9.50;;;;;5.81;50.24;102797.00;5050008;28;11432;-71
2022/03/06 10:26:24;;;;;;;;;9.75;9.00;;;;;6.18;49.44;102805.97;5034652;28;11395;-71
2022/03/06 10:28:52;;;;;;;;;11.00;9.75;;;;;5.98;49.71;102795.84;5049555;28;11415;-70
2022/03/06 10:31:19;;;;;;;;;9.75;9.50;;;;;5.97;49.13;102804.03;5049707;28;11463;-70
2022/03/06 10:34:01;;;;;;;;;9.00;9.00;;;;;6.08;49.76;102806.78;5050017;28;11398;-70
2022/03/06 10:36:44;;;;;;;;;6.00;6.00;;;;;6.46;49.69;102802.16;5048868;28;11457;-70
2022/03/06 10:39:15;;;;;;;;;7.50;7.50;;;;;6.51;48.96;102800.94;5049792;28;11223;-71
2022/03/06 10:41:47;;;;;;;;;13.00;11.75;;;;;6.47;48.74;102811.94;5050327;28;11548;-70
2022/03/06 10:44:15;;;;;;;;;10.75;9.75;;;;;6.37;49.00;102802.81;5061149;28;11560;-70
2022/03/06 10:46:56;;;;;;;;;11.25;6.50;;;;;5.74;50.07;102822.63;5032918;28;11386;-70
2022/03/06 10:49:22;;;;;;;;;12.00;8.00;;;;;5.93;50.45;102814.09;5063200;28;11146;-71
2022/03/06 10:51:52;;;;;;;;;6.75;6.75;;;;;6.20;50.87;102810.38;5039324;28;11431;-71
2022/03/06 10:54:19;;;;;;;;;9.00;7.50;;;;;6.14;50.22;102814.38;5073460;28;11510;-71
2022/03/06 10:56:49;;;;;;;;;7.75;7.00;;;;;6.02;51.39;102821.53;5073627;28;11398;-71
2022/03/06 10:59:24;;;;;;;;;9.00;8.50;;;;;5.78;50.84;102824.13;5053233;28;11535;-70
2022/03/06 11:01:51;;;;;;;;;12.00;12.00;;;;;5.47;51.94;102813.81;5038899;28;11368;-72
2022/03/06 11:04:19;;;;;;;;;10.50;9.75;;;;;5.75;52.02;102816.28;5037776;28;11514;-70
2022/03/06 11:06:50;;;;;;;;;7.25;7.25;;;;;5.68;52.76;102817.66;5050868;28;11484;-71
2022/03/06 11:09:19;;;;;;;;;7.00;7.00;;;;;5.97;52.17;102806.72;5044701;28;11529;-71
2022/03/06 11:11:50;;;;;;;;;9.00;9.00;;;;;6.40;51.40;102809.78;5073196;28;11424;-70
2022/03/06 11:14:17;;;;;;;;;10.25;8.50;;;;;6.10;51.01;102811.06;5046721;28;11396;-71
2022/03/06 11:16:44;;;;;;;;;9.00;7.00;;;;;6.03;51.97;102801.75;5036124;28;12282;-70
2022/03/06 11:19:11;;;;;;;;;9.00;9.00;;;;;6.41;51.72;102811.50;5040305;28;11480;-71